Time;durP1;ratioP1;P1;durP2;ratioP2;P2;SDS_P1;SDS_P2;PMS_P1;PMS_P2;Temp;Humidity;BMP_temperature;BMP_pressure;BME280_temperature;BME280_humidity;BME280_pressure;Samples;Min_cycle;Max_cycle;Signal;HPM_P1;HPM_P2
2021/04/09 00:01:42;;;;;;;3.80;2.30;;;16.80;48.40;;;;;;4773396;30;20221;-84
2021/04/09 00:04:09;;;;;;;2.80;2.00;;;16.80;48.40;;;;;;4771453;30;20208;-81
2021/04/09 00:06:35;;;;;;;1.90;1.67;;;16.80;48.50;;;;;;4774764;30;20216;-83
2021/04/09 00:09:05;;;;;;;6.10;2.50;;;16.70;48.40;;;;;;4772616;30;20223;-83
2021/04/09 00:11:41;;;;;;;3.70;2.10;;;16.80;48.40;;;;;;4756651;30;20197;-83
2021/04/09 00:14:09;;;;;;;3.63;2.23;;;16.80;48.50;;;;;;4755733;30;20201;-84
2021/04/09 00:16:40;;;;;;;3.10;2.03;;;16.80;48.40;;;;;;4770752;30;20685;-83
2021/04/09 00:19:14;;;;;;;2.10;1.90;;;16.80;48.40;;;;;;4772387;30;20204;-82
2021/04/09 00:21:42;;;;;;;3.93;2.03;;;16.70;48.40;;;;;;4764948;30;20736;-83
2021/04/09 00:24:12;;;;;;;3.97;2.13;;;16.80;48.50;;;;;;4771415;30;20196;-83
2021/04/09 00:26:39;;;;;;;3.77;2.20;;;16.80;48.50;;;;;;4756999;30;20205;-82
2021/04/09 00:29:06;;;;;;;3.60;2.13;;;16.80;48.50;;;;;;4771760;30;20207;-83
2021/04/09 00:31:33;;;;;;;2.53;2.10;;;16.80;48.40;;;;;;4772254;30;20216;-82
2021/04/09 00:34:01;;;;;;;4.27;2.47;;;16.80;48.50;;;;;;4772119;30;20219;-83
2021/04/09 00:36:28;;;;;;;2.63;1.80;;;16.70;48.50;;;;;;4771661;30;20205;-83
2021/04/09 00:38:56;;;;;;;2.77;2.33;;;16.70;48.50;;;;;;4771465;30;20756;-83
2021/04/09 00:41:28;;;;;;;3.83;2.70;;;16.70;48.50;;;;;;4745766;30;20237;-83
2021/04/09 00:43:54;;;;;;;3.30;1.93;;;16.70;48.40;;;;;;4753675;30;20208;-82
2021/04/09 00:46:22;;;;;;;3.30;2.00;;;16.70;48.50;;;;;;4766418;30;20221;-83
2021/04/09 00:48:48;;;;;;;3.53;2.50;;;16.70;48.50;;;;;;4770400;30;20211;-83
2021/04/09 00:51:16;;;;;;;3.60;2.50;;;16.70;48.50;;;;;;4771221;30;20204;-83
2021/04/09 00:53:43;;;;;;;2.93;2.53;;;16.70;49.00;;;;;;4771060;30;20215;-82
2021/04/09 00:56:14;;;;;;;3.23;2.20;;;16.70;48.40;;;;;;4754848;30;20224;-83
2021/04/09 00:58:41;;;;;;;3.00;2.50;;;16.70;48.40;;;;;;4771432;30;20204;-83
2021/04/09 01:01:07;;;;;;;5.30;2.77;;;16.70;48.40;;;;;;4771040;30;20233;-82
2021/04/09 01:03:34;;;;;;;3.17;2.37;;;16.70;48.40;;;;;;4770736;30;20196;-83
2021/04/09 01:06:03;;;;;;;3.27;2.53;;;16.70;48.50;;;;;;4770782;30;20204;-83
2021/04/09 01:08:30;;;;;;;3.63;2.47;;;16.70;48.50;;;;;;4770819;30;20254;-81
2021/04/09 01:10:57;;;;;;;2.93;2.43;;;16.70;48.40;;;;;;4762745;30;20201;-82
2021/04/09 01:13:27;;;;;;;4.73;2.50;;;16.60;48.40;;;;;;4770277;30;20222;-83
2021/04/09 01:15:53;;;;;;;3.13;2.33;;;16.70;48.50;;;;;;4770259;30;20212;-82
2021/04/09 01:18:36;;;;;;;4.43;2.50;;;16.70;48.50;;;;;;4771149;30;20713;-82
2021/04/09 01:21:34;;;;;;;4.00;2.80;;;16.70;48.40;;;;;;4762691;30;20224;-82
2021/04/09 01:24:07;;;;;;;3.97;2.63;;;16.70;48.50;;;;;;4770832;30;20657;-82
2021/04/09 01:27:04;;;;;;;3.57;2.23;;;16.60;48.40;;;;;;4768747;30;20658;-83
2021/04/09 01:29:55;;;;;;;4.60;2.60;;;16.60;48.40;;;;;;4770555;30;20188;-84
2021/04/09 01:32:23;;;;;;;3.83;2.53;;;16.60;48.40;;;;;;4770960;30;20208;-83
2021/04/09 01:34:57;;;;;;;3.20;2.27;;;16.60;48.40;;;;;;4770774;30;20207;-83
2021/04/09 01:37:37;;;;;;;3.10;2.77;;;16.60;48.40;;;;;;4770785;30;20235;-83
2021/04/09 01:40:11;;;;;;;5.97;3.10;;;16.60;48.40;;;;;;4770907;30;20668;-83
2021/04/09 01:42:41;;;;;;;3.60;2.50;;;16.60;48.50;;;;;;4755321;30;20220;-83
2021/04/09 01:45:11;;;;;;;4.00;2.90;;;16.70;48.50;;;;;;4754907;30;20176;-83
2021/04/09 01:47:38;;;;;;;2.83;2.17;;;16.60;48.40;;;;;;4770731;30;20259;-83
2021/04/09 01:50:09;;;;;;;3.70;2.40;;;16.60;48.50;;;;;;4770355;30;20192;-83
2021/04/09 01:52:36;;;;;;;4.10;2.80;;;16.60;48.50;;;;;;4770391;30;20209;-82
2021/04/09 01:55:07;;;;;;;3.17;2.83;;;16.60;48.40;;;;;;4769551;30;20204;-83
2021/04/09 01:57:37;;;;;;;2.90;2.27;;;16.60;48.50;;;;;;4770512;30;20212;-83
2021/04/09 02:00:05;;;;;;;3.70;2.47;;;16.60;48.50;;;;;;4769875;30;20211;-83
2021/04/09 02:02:32;;;;;;;3.60;2.53;;;16.60;48.40;;;;;;4770498;30;20263;-83
2021/04/09 02:04:59;;;;;;;4.23;2.43;;;16.60;48.40;;;;;;4754488;30;20212;-83
2021/04/09 02:07:26;;;;;;;3.27;2.43;;;16.60;48.60;;;;;;4770160;30;20220;-83
2021/04/09 02:09:56;;;;;;;4.13;2.50;;;16.60;48.40;;;;;;4754197;30;20236;-82
2021/04/09 02:12:23;;;;;;;2.60;2.33;;;16.60;48.50;;;;;;4769559;30;20615;-82
2021/04/09 02:14:55;;;;;;;3.77;2.57;;;16.60;48.50;;;;;;4769748;30;20193;-81
2021/04/09 02:17:23;;;;;;;3.13;2.30;;;16.60;48.40;;;;;;4769544;30;20925;-80
2021/04/09 02:19:50;;;;;;;5.07;2.40;;;16.60;48.50;;;;;;4768537;30;20212;-82
2021/04/09 02:22:34;;;;;;;2.87;2.43;;;16.60;48.40;;;;;;4768653;30;20234;-83
2021/04/09 02:25:00;;;;;;;4.23;2.50;;;16.60;48.50;;;;;;4768690;30;20193;-83
2021/04/09 02:27:27;;;;;;;3.10;2.40;;;16.60;48.40;;;;;;4769155;30;20208;-83
2021/04/09 02:29:54;;;;;;;3.50;2.17;;;16.60;48.50;;;;;;4769890;30;20229;-83
2021/04/09 02:32:22;;;;;;;4.10;2.30;;;16.60;48.40;;;;;;4769461;30;20224;-83
2021/04/09 02:34:49;;;;;;;4.00;2.50;;;16.60;48.50;;;;;;4769625;30;20204;-82
2021/04/09 02:37:18;;;;;;;2.57;2.20;;;16.60;48.40;;;;;;4769589;30;20236;-82
2021/04/09 02:39:47;;;;;;;4.17;2.57;;;16.60;48.40;;;;;;4769368;30;20227;-81
2021/04/09 02:42:13;;;;;;;4.13;2.60;;;16.60;48.40;;;;;;4759521;30;20714;-82
2021/04/09 02:44:40;;;;;;;3.50;2.43;;;16.60;48.40;;;;;;4762917;30;20199;-82
2021/04/09 02:47:11;;;;;;;5.03;2.80;;;16.60;48.40;;;;;;4752967;30;20205;-81
2021/04/09 02:49:45;;;;;;;2.63;2.30;;;16.60;48.40;;;;;;4752115;30;20738;-82
2021/04/09 02:52:23;;;;;;;3.43;2.47;;;16.60;48.40;;;;;;4768511;30;20726;-83
2021/04/09 02:54:51;;;;;;;4.17;2.90;;;16.60;48.40;;;;;;4768878;30;20200;-83
2021/04/09 02:57:25;;;;;;;2.67;2.37;;;16.60;48.40;;;;;;4769285;30;20200;-83
2021/04/09 02:59:52;;;;;;;3.20;2.60;;;16.50;48.40;;;;;;4768619;30;20205;-82
2021/04/09 03:02:22;;;;;;;3.50;2.80;;;16.50;48.30;;;;;;4753436;30;20216;-82
2021/04/09 03:04:49;;;;;;;3.60;2.43;;;16.60;48.40;;;;;;4769284;30;20196;-82
2021/04/09 03:07:17;;;;;;;2.83;2.20;;;16.50;48.30;;;;;;4769190;30;20208;-83
2021/04/09 03:09:48;;;;;;;3.13;2.00;;;16.50;48.40;;;;;;4753160;30;20664;-80
2021/04/09 03:12:19;;;;;;;3.67;2.80;;;16.60;48.40;;;;;;4767673;30;20208;-80
2021/04/09 03:14:54;;;;;;;3.50;2.37;;;16.60;48.50;;;;;;4768176;30;20185;-87
2021/04/09 03:17:57;;;;;;;4.00;2.50;;;16.50;48.50;;;;;;4761626;30;20217;-87
2021/04/09 03:26:59;;;;;;;3.67;2.50;;;16.90;49.40;;;;;;4824574;24;20253;-91
2021/04/09 03:29:26;;;;;;;3.23;2.57;;;16.90;49.20;;;;;;4735830;30;20213;-91
2021/04/09 03:31:53;;;;;;;3.33;2.47;;;17.00;49.80;;;;;;4751577;29;20232;-94
2021/04/09 03:34:19;;;;;;;4.10;2.50;;;17.10;49.50;;;;;;4758490;30;20200;-87
2021/04/09 03:36:48;;;;;;;2.93;2.27;;;17.20;48.80;;;;;;4736161;30;20209;-92
2021/04/09 03:39:15;;;;;;;3.73;2.47;;;17.20;48.80;;;;;;4751080;30;20266;-91
2021/04/09 03:41:41;;;;;;;3.03;2.00;;;17.20;49.20;;;;;;4753947;30;20875;-87
2021/04/09 03:44:08;;;;;;;2.40;2.20;;;17.30;48.80;;;;;;4757172;30;20282;-92
2021/04/09 03:46:34;;;;;;;4.17;2.30;;;17.30;49.20;;;;;;4757615;29;20223;-91
2021/04/09 03:49:01;;;;;;;3.40;2.30;;;17.30;48.70;;;;;;4755699;30;20655;-92
2021/04/09 03:51:30;;;;;;;4.13;2.40;;;17.30;48.60;;;;;;4755096;30;20572;-91
2021/04/09 03:53:57;;;;;;;3.17;2.40;;;17.30;48.50;;;;;;4754840;30;20274;-91
2021/04/09 03:56:24;;;;;;;2.90;2.47;;;17.30;48.50;;;;;;4753210;30;20213;-86
2021/04/09 03:58:51;;;;;;;2.83;2.00;;;17.30;48.40;;;;;;4754641;30;20201;-88
2021/04/09 04:01:18;;;;;;;4.17;2.50;;;17.40;48.30;;;;;;4754338;30;20233;-88
2021/04/09 04:03:48;;;;;;;3.43;2.53;;;17.40;48.30;;;;;;4737336;30;20209;-91
2021/04/09 04:06:15;;;;;;;3.00;2.23;;;17.40;48.40;;;;;;4752814;30;20225;-90
2021/04/09 04:08:42;;;;;;;4.33;2.50;;;17.40;48.30;;;;;;4752370;30;20720;-91
2021/04/09 04:11:08;;;;;;;2.30;1.97;;;17.40;48.30;;;;;;4735770;30;20243;-91
2021/04/09 04:13:35;;;;;;;3.70;2.20;;;17.40;48.30;;;;;;4741321;30;20208;-90
2021/04/09 04:16:03;;;;;;;2.87;2.27;;;17.50;48.10;;;;;;4754917;29;20342;-95
2021/04/09 04:18:29;;;;;;;3.43;1.90;;;17.50;48.00;;;;;;4770534;24;20205;-91
2021/04/09 04:21:01;;;;;;;7.63;2.30;;;17.50;48.00;;;;;;4758150;30;20220;-95
2021/04/09 04:23:27;;;;;;;3.53;2.47;;;17.50;47.80;;;;;;4759229;30;20893;-88
2021/04/09 04:25:53;;;;;;;4.17;2.20;;;17.60;47.90;;;;;;4756889;29;20666;-89
2021/04/09 04:28:22;;;;;;;2.47;2.00;;;17.60;47.80;;;;;;4755499;30;20208;-86
2021/04/09 04:30:51;;;;;;;2.20;2.00;;;17.50;47.50;;;;;;4772262;30;20266;-86
2021/04/09 04:33:21;;;;;;;4.03;2.00;;;17.60;47.50;;;;;;4772565;30;20548;-86
2021/04/09 04:35:48;;;;;;;3.53;2.37;;;17.50;47.40;;;;;;4773092;29;20205;-87
2021/04/09 04:38:17;;;;;;;3.43;2.13;;;17.50;47.40;;;;;;4772859;30;20663;-86
2021/04/09 04:40:44;;;;;;;2.70;1.90;;;17.40;47.30;;;;;;4756832;29;20196;-85
2021/04/09 04:43:11;;;;;;;3.17;1.83;;;17.40;47.30;;;;;;4766120;30;20212;-86
2021/04/09 04:45:38;;;;;;;2.30;1.80;;;17.40;47.40;;;;;;4772331;30;20211;-86
2021/04/09 04:48:06;;;;;;;2.47;1.83;;;17.30;47.30;;;;;;4771685;30;20300;-87
2021/04/09 04:50:32;;;;;;;3.17;2.20;;;17.40;47.40;;;;;;4755369;30;20219;-86
2021/04/09 04:53:07;;;;;;;4.33;2.37;;;17.30;47.40;;;;;;4755361;30;20232;-86
2021/04/09 04:55:34;;;;;;;3.13;2.20;;;17.30;47.50;;;;;;4771545;30;20200;-85
2021/04/09 04:58:02;;;;;;;2.67;2.10;;;17.30;47.50;;;;;;4771780;30;20235;-85
2021/04/09 05:00:29;;;;;;;3.10;2.17;;;17.20;47.40;;;;;;4771156;30;20212;-84
2021/04/09 05:02:55;;;;;;;2.33;2.13;;;17.20;47.50;;;;;;4770994;29;20231;-85
2021/04/09 05:05:22;;;;;;;3.63;2.17;;;17.20;47.70;;;;;;4771183;30;20199;-85
2021/04/09 05:07:48;;;;;;;3.20;2.03;;;17.20;47.70;;;;;;4770498;30;20830;-84
2021/04/09 05:10:18;;;;;;;2.90;1.93;;;17.20;47.60;;;;;;4776161;29;20272;-84
2021/04/09 05:12:45;;;;;;;5.03;2.17;;;17.20;47.70;;;;;;4770813;30;20205;-84
2021/04/09 05:15:13;;;;;;;3.23;2.27;;;17.20;47.60;;;;;;4755940;30;20208;-84
2021/04/09 05:17:40;;;;;;;3.67;2.00;;;17.20;47.60;;;;;;4769820;30;20207;-84
2021/04/09 05:20:07;;;;;;;3.30;2.10;;;17.10;47.60;;;;;;4770411;30;20243;-84
2021/04/09 05:22:34;;;;;;;2.27;1.97;;;17.20;47.70;;;;;;4770929;30;20224;-84
2021/04/09 05:25:00;;;;;;;3.10;2.10;;;17.10;47.70;;;;;;4759311;30;20658;-86
2021/04/09 05:27:26;;;;;;;2.60;2.10;;;17.10;47.70;;;;;;4789058;30;20208;-86
2021/04/09 05:29:53;;;;;;;2.50;1.60;;;17.10;47.70;;;;;;4771309;29;20535;-86
2021/04/09 05:32:19;;;;;;;3.60;1.90;;;17.10;47.70;;;;;;4755380;30;20607;-85
2021/04/09 05:34:46;;;;;;;3.10;1.90;;;17.10;47.70;;;;;;4765487;30;20192;-85
2021/04/09 05:37:15;;;;;;;2.73;1.90;;;17.10;47.70;;;;;;4768823;30;20348;-83
2021/04/09 05:39:41;;;;;;;3.47;1.90;;;17.10;47.70;;;;;;4769644;30;20201;-83
2021/04/09 05:45:11;;;;;;;2.63;1.93;;;17.10;47.70;;;;;;4759299;24;20252;-84
2021/04/09 05:47:38;;;;;;;2.37;1.77;;;17.00;47.70;;;;;;4751078;30;20224;-86
2021/04/09 05:50:05;;;;;;;2.77;1.90;;;17.00;47.70;;;;;;4751548;29;20219;-81
2021/04/09 05:52:34;;;;;;;15.37;4.93;;;17.00;47.70;;;;;;4752981;30;20225;-84
2021/04/09 05:55:00;;;;;;;24.73;6.50;;;17.00;48.50;;;;;;4753195;30;20194;-83
2021/04/09 05:57:29;;;;;;;31.60;8.43;;;17.00;48.60;;;;;;4752500;30;20205;-83
2021/04/09 05:59:55;;;;;;;22.57;6.77;;;17.00;49.30;;;;;;4752465;30;20216;-84
2021/04/09 06:02:21;;;;;;;16.83;6.00;;;17.00;48.90;;;;;;4751238;30;20757;-82
2021/04/09 06:04:47;;;;;;;18.40;6.93;;;16.90;48.60;;;;;;4751901;30;20665;-84
2021/04/09 06:07:14;;;;;;;17.50;5.57;;;16.90;48.70;;;;;;4752586;30;20221;-84
2021/04/09 06:09:40;;;;;;;17.27;6.97;;;16.90;48.40;;;;;;4766599;30;20476;-85
2021/04/09 06:12:08;;;;;;;14.10;5.17;;;16.90;48.40;;;;;;4752725;30;20220;-85
2021/04/09 06:14:34;;;;;;;13.13;5.07;;;16.90;48.40;;;;;;4751052;30;20193;-82
2021/04/09 06:17:02;;;;;;;20.80;5.83;;;17.00;48.50;;;;;;4751429;30;20208;-84
2021/04/09 06:19:29;;;;;;;20.73;6.67;;;16.90;49.00;;;;;;4750579;30;20549;-80
2021/04/09 06:21:55;;;;;;;20.30;6.40;;;16.90;50.00;;;;;;4748259;30;20221;-83
2021/04/09 06:24:21;;;;;;;19.30;5.87;;;16.90;50.00;;;;;;4751365;30;20206;-83
2021/04/09 06:26:48;;;;;;;17.77;5.60;;;16.90;49.70;;;;;;4737041;30;20588;-83
2021/04/09 06:29:14;;;;;;;17.10;5.30;;;16.90;49.70;;;;;;4751271;30;20259;-83
2021/04/09 06:31:43;;;;;;;13.23;5.00;;;16.90;49.40;;;;;;4751482;30;20831;-83
2021/04/09 06:34:12;;;;;;;15.27;5.13;;;16.90;49.40;;;;;;4760582;30;20211;-84
2021/04/09 06:36:39;;;;;;;13.70;4.67;;;16.90;49.10;;;;;;4751918;30;20213;-82
2021/04/09 06:39:06;;;;;;;12.50;4.53;;;16.90;49.00;;;;;;4738607;30;20207;-83
2021/04/09 06:41:35;;;;;;;13.93;5.37;;;16.90;49.00;;;;;;4755638;30;20229;-84
2021/04/09 06:44:05;;;;;;;9.83;4.77;;;16.90;48.90;;;;;;4750415;30;20311;-82
2021/04/09 06:46:34;;;;;;;9.90;4.67;;;16.90;48.90;;;;;;4750779;30;20259;-82
2021/04/09 06:49:00;;;;;;;13.70;5.03;;;16.80;48.90;;;;;;4751569;30;20201;-83
2021/04/09 06:51:27;;;;;;;10.57;4.10;;;16.90;48.80;;;;;;4753703;30;20212;-84
2021/04/09 06:53:54;;;;;;;11.23;4.87;;;16.90;49.00;;;;;;4741755;30;20216;-83
2021/04/09 06:56:25;;;;;;;9.07;4.00;;;16.90;48.80;;;;;;4752046;30;20670;-82
2021/04/09 06:58:53;;;;;;;9.43;4.30;;;16.90;48.90;;;;;;4757628;30;20221;-81
2021/04/09 07:01:23;;;;;;;8.70;3.90;;;16.90;48.80;;;;;;4730950;30;20703;-82
2021/04/09 07:03:53;;;;;;;8.07;3.60;;;16.90;49.20;;;;;;4743005;30;20209;-82
2021/04/09 07:06:19;;;;;;;11.73;3.90;;;16.90;49.20;;;;;;4741445;30;20380;-83
2021/04/09 07:08:45;;;;;;;7.03;4.03;;;16.90;49.30;;;;;;4763083;30;20206;-83
2021/04/09 07:11:12;;;;;;;8.20;3.57;;;16.90;49.30;;;;;;4762925;30;20249;-81
2021/04/09 07:13:48;;;;;;;11.87;4.23;;;16.90;49.50;;;;;;4762517;30;20219;-82
2021/04/09 07:16:14;;;;;;;4.73;2.83;;;16.90;49.30;;;;;;4766286;30;20459;-82
2021/04/09 07:18:47;;;;;;;4.70;3.20;;;16.90;49.30;;;;;;4768255;29;20211;-83
2021/04/09 07:21:24;;;;;;;9.50;3.30;;;16.90;49.20;;;;;;4748751;30;20684;-83
2021/04/09 07:24:10;;;;;;;6.10;3.00;;;16.90;49.00;;;;;;4745528;30;20223;-83
2021/04/09 07:26:46;;;;;;;6.77;2.80;;;16.90;49.10;;;;;;4744495;30;20265;-82
2021/04/09 07:29:30;;;;;;;6.00;3.07;;;16.90;49.20;;;;;;4756472;30;20199;-86
2021/04/09 07:32:17;;;;;;;4.30;2.83;;;16.90;49.40;;;;;;4752960;30;20709;-82
2021/04/09 07:34:58;;;;;;;6.27;3.47;;;16.90;49.40;;;;;;4751852;30;20288;-83
2021/04/09 07:37:30;;;;;;;5.53;2.70;;;16.90;49.30;;;;;;4764276;30;20615;-83
2021/04/09 07:40:05;;;;;;;4.90;2.90;;;16.90;49.40;;;;;;4765923;30;20202;-83
2021/04/09 07:42:34;;;;;;;4.90;2.80;;;16.90;49.50;;;;;;4754439;30;20233;-83
2021/04/09 07:45:11;;;;;;;5.80;2.97;;;16.90;49.50;;;;;;4747534;30;20722;-83
2021/04/09 07:47:39;;;;;;;4.83;2.47;;;17.00;49.70;;;;;;4761714;30;20230;-83
2021/04/09 07:50:09;;;;;;;6.07;2.60;;;17.00;49.90;;;;;;4759974;30;20217;-83
2021/04/09 07:52:53;;;;;;;4.60;2.37;;;17.00;50.00;;;;;;4748909;30;20282;-82
2021/04/09 07:55:22;;;;;;;7.33;2.80;;;17.00;50.30;;;;;;4740683;30;20212;-84
2021/04/09 07:57:49;;;;;;;8.47;2.90;;;17.00;50.10;;;;;;4745334;30;20218;-84
2021/04/09 08:00:26;;;;;;;4.23;2.30;;;17.00;50.80;;;;;;4760712;30;20209;-83
2021/04/09 08:02:54;;;;;;;4.27;2.80;;;17.00;50.20;;;;;;4752069;30;20220;-82
2021/04/09 08:05:26;;;;;;;6.60;2.50;;;17.00;50.20;;;;;;4756859;30;20752;-81
2021/04/09 08:07:55;;;;;;;5.80;2.37;;;17.00;50.10;;;;;;4760146;30;20220;-81
2021/04/09 08:10:44;;;;;;;4.60;2.10;;;17.00;50.10;;;;;;4756328;30;20216;-82
2021/04/09 08:13:16;;;;;;;3.03;2.10;;;17.00;49.90;;;;;;4750758;30;20214;-83
2021/04/09 08:15:42;;;;;;;7.23;2.67;;;17.10;49.80;;;;;;4745351;30;20747;-83
2021/04/09 08:18:11;;;;;;;3.60;1.90;;;17.00;49.50;;;;;;4747136;30;20213;-83
2021/04/09 08:20:39;;;;;;;4.17;2.30;;;17.00;49.50;;;;;;4749839;30;20313;-84
2021/04/09 08:23:08;;;;;;;2.53;1.70;;;17.10;49.40;;;;;;4750304;30;20586;-86
2021/04/09 08:25:36;;;;;;;2.83;1.93;;;17.00;49.40;;;;;;4753505;30;20622;-86
2021/04/09 08:28:07;;;;;;;3.33;2.10;;;17.10;49.40;;;;;;4756885;30;20264;-85
2021/04/09 08:30:38;;;;;;;2.77;1.90;;;17.10;49.40;;;;;;4753609;29;20235;-86
2021/04/09 08:33:06;;;;;;;3.30;2.00;;;17.10;49.30;;;;;;4754049;30;20226;-87
2021/04/09 08:35:33;;;;;;;4.00;1.73;;;17.10;49.20;;;;;;4754361;29;20201;-87
2021/04/09 08:38:01;;;;;;;2.57;1.80;;;17.10;49.70;;;;;;4756989;30;20209;-87
2021/04/09 08:40:28;;;;;;;3.03;1.97;;;17.10;49.30;;;;;;4754943;30;20216;-87
2021/04/09 08:43:03;;;;;;;2.27;1.70;;;17.10;49.40;;;;;;4753648;29;20240;-87
2021/04/09 08:45:35;;;;;;;6.13;1.80;;;17.20;49.50;;;;;;4750808;30;20210;-87
2021/04/09 08:48:02;;;;;;;1.60;1.40;;;17.10;49.50;;;;;;4749771;30;20208;-87
2021/04/09 08:50:28;;;;;;;4.27;1.90;;;17.20;49.50;;;;;;4754257;30;20204;-86
2021/04/09 08:52:55;;;;;;;2.30;1.90;;;17.20;49.60;;;;;;4755390;29;20221;-88
2021/04/09 08:55:38;;;;;;;4.57;1.73;;;17.20;49.60;;;;;;4752964;30;20575;-86
2021/04/09 08:58:23;;;;;;;3.70;1.70;;;17.20;49.70;;;;;;4754162;29;20200;-88
2021/04/09 09:00:52;;;;;;;3.87;2.23;;;17.20;49.70;;;;;;4737348;30;20197;-87
2021/04/09 09:03:21;;;;;;;3.20;1.80;;;17.20;49.80;;;;;;4737938;30;21157;-83
2021/04/09 09:06:02;;;;;;;3.17;1.90;;;17.20;49.80;;;;;;4751786;30;20614;-84
2021/04/09 09:08:43;;;;;;;3.27;1.80;;;17.20;49.70;;;;;;4754738;30;20808;-84
2021/04/09 09:11:11;;;;;;;2.57;1.60;;;17.20;50.00;;;;;;4749071;30;20201;-84
2021/04/09 09:13:47;;;;;;;1.80;1.53;;;17.20;50.00;;;;;;4752352;30;20210;-85
2021/04/09 09:16:17;;;;;;;2.00;1.53;;;17.20;50.00;;;;;;4721584;30;20204;-84
2021/04/09 09:18:58;;;;;;;2.93;1.67;;;17.30;50.00;;;;;;4751696;30;20288;-85
2021/04/09 09:21:28;;;;;;;5.73;2.00;;;17.30;50.00;;;;;;4760392;30;20281;-88
2021/04/09 09:24:24;;;;;;;3.03;1.90;;;17.30;50.00;;;;;;4760922;29;20201;-87
2021/04/09 09:26:50;;;;;;;2.97;1.50;;;17.30;50.10;;;;;;4747221;30;20838;-87
2021/04/09 09:29:17;;;;;;;2.20;1.70;;;17.30;50.00;;;;;;4752861;30;20206;-87
2021/04/09 09:31:48;;;;;;;2.50;1.37;;;17.30;50.10;;;;;;4755498;30;20220;-88
2021/04/09 09:34:20;;;;;;;2.33;1.33;;;17.40;50.20;;;;;;4758963;29;20208;-88
2021/04/09 09:37:07;;;;;;;2.57;1.53;;;17.30;49.90;;;;;;4766137;30;20212;-88
2021/04/09 09:39:40;;;;;;;2.97;1.40;;;17.30;50.20;;;;;;4749530;30;20231;-89
2021/04/09 09:42:10;;;;;;;2.60;1.50;;;17.40;50.40;;;;;;4736509;30;20233;-88
2021/04/09 09:44:40;;;;;;;2.33;1.50;;;17.40;50.20;;;;;;4753182;30;20241;-87
2021/04/09 09:47:13;;;;;;;2.33;1.50;;;17.40;50.20;;;;;;4752464;30;20220;-86
2021/04/09 09:50:00;;;;;;;2.13;1.43;;;17.40;50.20;;;;;;4763500;30;20229;-87
2021/04/09 09:53:00;;;;;;;2.50;1.63;;;17.40;50.20;;;;;;4768913;29;20211;-88
2021/04/09 09:55:47;;;;;;;2.23;1.30;;;17.50;50.20;;;;;;4762617;30;20224;-89
2021/04/09 09:58:17;;;;;;;2.40;1.67;;;17.50;50.20;;;;;;4762948;29;20288;-87
2021/04/09 10:01:01;;;;;;;1.63;1.40;;;17.50;50.20;;;;;;4738895;30;20201;-87
2021/04/09 10:03:38;;;;;;;1.90;1.40;;;17.50;50.20;;;;;;4746309;30;20236;-87
2021/04/09 10:06:11;;;;;;;2.13;1.30;;;17.50;50.00;;;;;;4750931;30;20290;-87
2021/04/09 10:08:58;;;;;;;2.87;1.70;;;17.50;49.90;;;;;;4751228;30;20218;-87
2021/04/09 10:11:24;;;;;;;2.70;1.63;;;17.50;49.60;;;;;;4752760;29;20217;-87
2021/04/09 10:13:52;;;;;;;2.13;1.40;;;17.60;49.50;;;;;;4746863;29;20285;-87
2021/04/09 10:16:26;;;;;;;2.37;1.30;;;17.60;49.40;;;;;;4752607;30;20798;-85
2021/04/09 10:19:05;;;;;;;2.03;1.30;;;17.60;49.30;;;;;;4751905;30;20236;-87
2021/04/09 10:21:34;;;;;;;2.93;1.40;;;17.60;49.60;;;;;;4739765;30;20729;-88
2021/04/09 10:24:16;;;;;;;2.60;1.50;;;17.60;49.50;;;;;;4751949;29;20263;-88
2021/04/09 10:26:50;;;;;;;1.40;1.30;;;17.60;49.60;;;;;;4751902;30;20220;-88
2021/04/09 10:29:28;;;;;;;1.57;1.17;;;17.70;49.50;;;;;;4752606;29;20737;-90
2021/04/09 10:31:56;;;;;;;5.10;1.07;;;17.70;49.40;;;;;;4753385;30;20216;-89
2021/04/09 10:34:30;;;;;;;1.80;1.30;;;17.70;49.50;;;;;;4737632;30;20251;-89
2021/04/09 10:36:56;;;;;;;1.20;1.10;;;17.70;49.40;;;;;;4750565;29;20217;-88
2021/04/09 10:39:25;;;;;;;3.90;1.30;;;17.70;49.60;;;;;;4732910;30;20579;-87
2021/04/09 10:42:01;;;;;;;2.87;1.10;;;17.70;50.50;;;;;;4746931;29;20237;-90
2021/04/09 10:44:29;;;;;;;1.77;1.17;;;17.70;49.90;;;;;;4738035;30;20244;-89
2021/04/09 10:47:04;;;;;;;1.10;1.00;;;17.80;49.60;;;;;;4758559;29;20685;-89
2021/04/09 10:49:38;;;;;;;2.00;1.30;;;17.80;49.70;;;;;;4759193;30;20243;-89
2021/04/09 10:52:15;;;;;;;2.70;1.50;;;17.80;49.50;;;;;;4735111;30;20236;-89
2021/04/09 10:54:44;;;;;;;2.37;1.40;;;17.80;49.60;;;;;;4732126;30;20205;-89
2021/04/09 10:57:14;;;;;;;2.07;1.17;;;17.80;49.70;;;;;;4745580;30;20191;-87
2021/04/09 10:59:46;;;;;;;1.93;1.03;;;17.80;49.50;;;;;;4761765;30;20192;-88
2021/04/09 11:02:21;;;;;;;2.50;1.43;;;17.80;49.80;;;;;;4738256;29;21218;-88
2021/04/09 11:04:53;;;;;;;2.17;1.27;;;17.80;49.70;;;;;;4748453;29;20683;-87
2021/04/09 11:07:43;;;;;;;3.80;1.40;;;17.90;49.80;;;;;;4737728;30;20201;-87
2021/04/09 11:10:34;;;;;;;1.57;1.07;;;17.90;49.70;;;;;;4748810;30;20210;-88
2021/04/09 11:13:01;;;;;;;2.70;1.50;;;17.90;49.40;;;;;;4738754;30;20215;-89
2021/04/09 11:15:43;;;;;;;2.63;1.60;;;18.00;48.80;;;;;;4738518;30;20573;-89
2021/04/09 11:18:12;;;;;;;2.03;1.13;;;17.90;49.10;;;;;;4736623;30;20235;-88
2021/04/09 11:20:46;;;;;;;2.17;1.40;;;17.90;49.00;;;;;;4750816;29;20835;-89
2021/04/09 11:23:14;;;;;;;1.77;1.10;;;17.90;49.10;;;;;;4751716;30;20237;-88
2021/04/09 11:25:47;;;;;;;1.73;1.10;;;18.00;49.40;;;;;;4768315;30;20204;-90
2021/04/09 11:28:28;;;;;;;1.70;1.00;;;18.00;49.50;;;;;;4752134;29;20212;-89
2021/04/09 11:31:05;;;;;;;1.27;0.70;;;18.00;49.60;;;;;;4744574;30;20204;-90
2021/04/09 11:33:37;;;;;;;1.20;0.70;;;18.00;49.50;;;;;;4745552;30;20384;-90
2021/04/09 11:36:24;;;;;;;1.53;0.97;;;18.00;49.60;;;;;;4755008;29;20212;-90
2021/04/09 11:39:10;;;;;;;1.47;0.87;;;18.00;49.60;;;;;;4756300;29;20659;-90
2021/04/09 11:41:39;;;;;;;3.23;1.20;;;18.00;49.80;;;;;;4741698;30;20609;-89
2021/04/09 11:44:27;;;;;;;2.83;1.10;;;18.00;49.80;;;;;;4742637;30;20248;-89
2021/04/09 11:47:10;;;;;;;2.03;1.20;;;18.10;49.70;;;;;;4755526;29;20825;-88
2021/04/09 11:49:40;;;;;;;2.60;1.10;;;18.10;49.70;;;;;;4743383;30;20204;-88
2021/04/09 11:52:06;;;;;;;1.57;1.00;;;18.10;49.70;;;;;;4753624;29;20209;-88
2021/04/09 11:54:39;;;;;;;1.17;0.70;;;18.10;49.50;;;;;;4742406;30;20263;-87
2021/04/09 11:57:23;;;;;;;1.13;0.93;;;18.10;49.40;;;;;;4764165;30;20211;-88
2021/04/09 11:59:50;;;;;;;1.70;0.97;;;18.10;49.30;;;;;;4748579;29;20208;-87
2021/04/09 12:02:26;;;;;;;1.13;1.00;;;18.10;49.30;;;;;;4746883;29;20246;-89
2021/04/09 12:04:56;;;;;;;3.43;1.10;;;18.10;49.20;;;;;;4745747;30;20263;-86
2021/04/09 12:07:25;;;;;;;1.97;1.20;;;18.10;49.10;;;;;;4763693;29;20209;-87
2021/04/09 12:09:53;;;;;;;2.57;1.07;;;18.10;49.10;;;;;;4760794;30;20212;-88
2021/04/09 12:12:23;;;;;;;1.20;0.87;;;18.10;49.10;;;;;;4747315;30;20706;-87
2021/04/09 12:14:51;;;;;;;1.73;1.13;;;18.10;49.10;;;;;;4763903;30;20194;-86
2021/04/09 12:17:20;;;;;;;0.90;0.77;;;18.10;49.10;;;;;;4763898;30;20213;-86
2021/04/09 12:19:48;;;;;;;2.20;0.87;;;18.10;49.10;;;;;;4768461;30;20213;-85
2021/04/09 12:22:15;;;;;;;1.00;0.80;;;18.20;49.30;;;;;;4757933;30;20235;-85
2021/04/09 12:24:42;;;;;;;2.33;0.80;;;18.20;49.30;;;;;;4753160;30;20204;-85
2021/04/09 12:27:10;;;;;;;1.43;0.90;;;18.10;49.20;;;;;;4749672;30;20198;-85
2021/04/09 12:29:37;;;;;;;1.10;0.70;;;18.20;49.10;;;;;;4752872;30;20209;-84
2021/04/09 12:32:05;;;;;;;0.87;0.70;;;18.20;49.10;;;;;;4753815;30;20285;-85
2021/04/09 12:34:31;;;;;;;1.23;0.77;;;18.20;49.20;;;;;;4753878;30;20205;-84
2021/04/09 12:36:58;;;;;;;1.00;0.80;;;18.20;49.10;;;;;;4742037;30;20209;-90
2021/04/09 12:39:27;;;;;;;8.37;0.77;;;18.20;49.20;;;;;;4738488;30;20298;-90
2021/04/09 12:41:54;;;;;;;3.27;0.90;;;18.30;49.70;;;;;;4753805;30;20227;-89
2021/04/09 12:44:22;;;;;;;0.93;0.80;;;18.40;49.90;;;;;;4761639;29;20813;-87
2021/04/09 12:46:50;;;;;;;5.43;0.90;;;18.50;50.00;;;;;;4750605;29;20205;-87
2021/04/09 12:49:29;;;;;;;2.20;0.60;;;18.50;50.00;;;;;;4740075;30;20564;-89
2021/04/09 12:51:55;;;;;;;1.83;0.90;;;18.60;50.20;;;;;;4754429;29;20247;-87
2021/04/09 12:54:22;;;;;;;2.67;0.80;;;18.60;50.10;;;;;;4743821;30;20209;-87
2021/04/09 12:56:49;;;;;;;0.97;0.70;;;18.70;49.90;;;;;;4760947;29;20216;-87
2021/04/09 12:59:24;;;;;;;3.13;0.73;;;18.80;50.70;;;;;;4768284;29;20196;-90
2021/04/09 13:01:51;;;;;;;0.97;0.70;;;18.80;50.10;;;;;;4744797;30;20228;-86
2021/04/09 13:04:17;;;;;;;2.07;0.67;;;18.80;50.90;;;;;;4741986;30;20328;-89
2021/04/09 13:06:44;;;;;;;0.80;0.70;;;18.90;50.00;;;;;;4755123;29;20213;-89
2021/04/09 13:15:11;;;;;;;3.57;0.73;;;19.10;49.60;;;;;;4768858;24;20242;-86
2021/04/09 13:34:42;;;;;;;1.00;0.77;;;19.40;49.10;;;;;;4817228;24;20282;-85
2021/04/09 13:37:08;;;;;;;1.33;0.73;;;19.40;49.00;;;;;;4772768;30;20223;-85